Time;durP1;ratioP1;P1;durP2;ratioP2;P2;SDS_P1;SDS_P2;PMS_P1;PMS_P2;Temp;Humidity;BMP_temperature;BMP_pressure;BME280_temperature;BME280_humidity;BME280_pressure;Samples;Min_cycle;Max_cycle;Signal;HPM_P1;HPM_P2
2022/03/13 00:00:48;;;;;;;45.63;18.75;;;7.90;99.90;;;;;;5013570;28;20085;-69
2022/03/13 00:03:17;;;;;;;50.75;21.00;;;7.90;99.90;;;;;;5014065;28;20054;-69
2022/03/13 00:05:47;;;;;;;51.25;19.70;;;7.90;99.90;;;;;;4995657;28;20089;-69
2022/03/13 00:08:25;;;;;;;53.35;21.05;;;7.90;99.90;;;;;;5013073;28;20131;-70
2022/03/13 00:10:56;;;;;;;52.47;20.42;;;7.90;99.90;;;;;;5012250;28;20405;-70
2022/03/13 00:13:24;;;;;;;54.90;21.30;;;7.90;99.90;;;;;;5012035;28;20041;-70
2022/03/13 00:15:52;;;;;;;50.28;20.90;;;7.90;99.90;;;;;;4995568;28;20089;-70
2022/03/13 00:18:20;;;;;;;;;;;7.80;99.90;;;;;;5014064;28;20046;-70
2022/03/13 00:20:47;;;;;;;52.50;19.23;;;7.80;99.90;;;;;;4995521;28;20319;-70
2022/03/13 00:23:12;;;;;;;53.78;20.80;;;7.80;99.90;;;;;;4995526;28;20050;-70
2022/03/13 00:25:39;;;;;;;49.50;20.90;;;7.80;99.90;;;;;;5013295;28;20049;-69
2022/03/13 00:28:07;;;;;;;49.90;20.40;;;7.80;99.90;;;;;;5012111;28;20048;-68
2022/03/13 00:30:33;;;;;;;52.97;21.45;;;7.80;99.90;;;;;;5011687;28;20053;-69
2022/03/13 00:33:00;;;;;;;56.40;21.92;;;7.90;99.90;;;;;;4996013;28;20049;-68
2022/03/13 00:35:27;;;;;;;57.03;21.30;;;7.90;99.90;;;;;;4979351;28;20073;-69
2022/03/13 00:37:54;;;;;;;52.13;21.67;;;7.80;99.90;;;;;;5011768;28;20382;-70
2022/03/13 00:40:20;;;;;;;50.65;20.75;;;7.80;99.90;;;;;;5013985;28;20406;-70
2022/03/13 00:42:46;;;;;;;55.85;22.10;;;7.80;99.90;;;;;;5012872;28;20046;-69
2022/03/13 00:45:13;;;;;;;51.67;21.58;;;7.90;99.90;;;;;;5011995;28;20085;-70
2022/03/13 00:47:39;;;;;;;52.30;20.98;;;7.90;99.90;;;;;;5011898;28;20099;-69
2022/03/13 00:50:05;;;;;;;52.90;21.30;;;7.90;99.90;;;;;;5012824;28;20406;-70
2022/03/13 00:52:31;;;;;;;51.88;20.70;;;8.00;99.90;;;;;;5013063;28;20061;-72
2022/03/13 00:54:57;;;;;;;51.35;20.42;;;8.00;99.90;;;;;;5011673;28;20191;-70
2022/03/13 00:57:22;;;;;;;48.03;19.83;;;8.00;99.90;;;;;;4995419;28;20123;-69
2022/03/13 00:59:48;;;;;;;51.05;19.55;;;8.00;99.90;;;;;;4994455;28;20490;-70
2022/03/13 01:02:15;;;;;;;51.10;20.27;;;8.00;99.90;;;;;;5012722;28;20045;-71
2022/03/13 01:04:41;;;;;;;48.13;20.83;;;8.00;99.90;;;;;;5013295;28;20176;-70
2022/03/13 01:07:06;;;;;;;46.67;15.85;;;8.10;99.90;;;;;;5013010;28;20419;-69
2022/03/13 01:09:34;;;;;;;50.10;19.85;;;8.00;99.90;;;;;;5013126;28;20037;-70
2022/03/13 01:12:00;;;;;;;50.55;19.73;;;8.00;99.90;;;;;;4998968;28;20129;-71
2022/03/13 01:14:28;;;;;;;51.33;20.08;;;8.10;99.90;;;;;;4999021;28;20045;-70
2022/03/13 01:17:17;;;;;;;50.10;19.83;;;8.00;99.90;;;;;;5015600;28;20124;-71
2022/03/13 01:19:43;;;;;;;49.85;18.80;;;8.00;99.90;;;;;;5016340;28;20045;-70
2022/03/13 01:22:11;;;;;;;50.10;19.80;;;8.00;99.90;;;;;;5016199;28;20455;-68
2022/03/13 01:24:47;;;;;;;55.20;20.42;;;8.00;99.90;;;;;;5016405;28;20092;-70
2022/03/13 01:27:15;;;;;;;50.72;19.30;;;8.00;99.90;;;;;;5015768;28;20378;-71
2022/03/13 01:29:42;;;;;;;51.90;19.25;;;8.00;99.90;;;;;;5016747;28;20042;-70
2022/03/13 01:32:09;;;;;;;48.97;19.13;;;8.00;99.90;;;;;;5016133;28;20128;-71
2022/03/13 01:34:41;;;;;;;45.25;18.35;;;8.00;99.90;;;;;;5016010;28;20054;-69
2022/03/13 01:37:14;;;;;;;44.08;18.08;;;8.00;99.90;;;;;;4999561;28;20153;-71
2022/03/13 01:39:41;;;;;;;47.90;19.13;;;8.10;99.90;;;;;;5014734;28;20041;-71
2022/03/13 01:42:07;;;;;;;47.33;18.92;;;8.10;99.90;;;;;;4999143;28;20048;-70
2022/03/13 01:44:33;;;;;;;48.42;17.58;;;8.10;99.90;;;;;;5015059;28;20048;-71
2022/03/13 01:47:01;;;;;;;50.03;19.95;;;8.10;99.90;;;;;;4998528;28;20050;-71
2022/03/13 01:49:28;;;;;;;48.05;18.08;;;8.20;99.90;;;;;;5016387;28;20042;-70
2022/03/13 01:51:54;;;;;;;46.85;18.70;;;8.20;99.90;;;;;;5015895;28;20049;-71
2022/03/13 01:54:20;;;;;;;48.30;18.88;;;8.20;99.90;;;;;;5014958;28;20136;-70
2022/03/13 01:56:46;;;;;;;52.92;18.73;;;8.20;99.90;;;;;;5015773;28;20041;-71
2022/03/13 01:59:14;;;;;;;49.07;19.10;;;8.30;99.90;;;;;;5013957;28;20034;-70
2022/03/13 02:01:41;;;;;;;44.60;17.90;;;8.30;99.90;;;;;;5015695;28;20133;-71
2022/03/13 02:04:07;;;;;;;48.92;18.42;;;8.30;99.90;;;;;;5014586;28;20180;-71
2022/03/13 02:06:33;;;;;;;45.08;18.48;;;8.30;99.90;;;;;;5014058;28;20034;-70
2022/03/13 02:08:59;;;;;;;43.30;18.23;;;8.40;99.90;;;;;;4997931;28;20077;-70
2022/03/13 02:11:40;;;;;;;45.88;18.05;;;8.40;99.90;;;;;;5014192;28;20135;-70
2022/03/13 02:14:08;;;;;;;46.38;18.58;;;8.40;99.90;;;;;;5014290;28;20045;-70
2022/03/13 02:16:34;;;;;;;45.55;17.25;;;8.40;99.90;;;;;;5016078;28;20129;-70
2022/03/13 02:19:00;;;;;;;46.47;18.73;;;8.40;99.90;;;;;;5014067;28;20410;-70
2022/03/13 02:21:28;;;;;;;44.65;18.75;;;8.40;99.90;;;;;;5014329;28;20046;-70
2022/03/13 02:24:01;;;;;;;43.30;18.38;;;8.50;99.90;;;;;;5015410;28;20184;-70
2022/03/13 02:26:27;;;;;;;47.83;17.70;;;8.40;99.90;;;;;;5013672;28;20042;-70
2022/03/13 02:28:55;;;;;;;50.35;18.33;;;8.40;99.90;;;;;;5013778;28;20054;-71
2022/03/13 02:31:34;;;;;;;51.10;18.52;;;8.50;99.90;;;;;;5016912;28;20176;-69
2022/03/13 02:34:00;;;;;;;48.42;18.73;;;8.50;99.90;;;;;;5014053;28;20361;-69
2022/03/13 02:36:32;;;;;;;45.75;17.77;;;8.50;99.90;;;;;;5014878;28;20065;-68
2022/03/13 02:39:01;;;;;;;50.45;18.85;;;8.50;99.90;;;;;;5015476;28;20041;-69
2022/03/13 02:41:27;;;;;;;50.55;19.42;;;8.50;99.90;;;;;;4997297;28;20057;-69
2022/03/13 02:43:53;;;;;;;41.45;16.73;;;8.50;99.90;;;;;;5013701;28;20121;-69
2022/03/13 02:46:21;;;;;;;49.85;19.70;;;8.40;99.90;;;;;;5014445;28;20500;-70
2022/03/13 02:48:48;;;;;;;48.05;17.77;;;8.40;99.90;;;;;;4998073;28;20041;-69
2022/03/13 02:51:14;;;;;;;;;;;8.30;99.90;;;;;;5015272;28;20069;-69
2022/03/13 02:53:40;;;;;;;58.78;19.92;;;8.30;99.90;;;;;;5014334;28;19968;-70
2022/03/13 02:56:06;;;;;;;46.53;18.48;;;8.30;99.90;;;;;;5015277;28;20410;-69
2022/03/13 02:58:33;;;;;;;45.50;18.50;;;8.20;99.90;;;;;;5013283;28;20034;-68
2022/03/13 03:00:59;;;;;;;37.40;14.55;;;8.20;99.90;;;;;;5014857;28;20064;-69
2022/03/13 03:03:26;;;;;;;45.88;19.35;;;8.30;99.90;;;;;;5013555;28;20445;-69
2022/03/13 03:05:52;;;;;;;;;;;8.20;99.90;;;;;;5014914;28;20053;-70
2022/03/13 03:08:19;;;;;;;49.10;18.50;;;8.10;99.90;;;;;;5014492;28;20357;-69
2022/03/13 03:10:45;;;;;;;47.22;18.45;;;8.10;99.90;;;;;;5014733;28;20375;-70
2022/03/13 03:13:13;;;;;;;44.83;18.02;;;8.10;99.90;;;;;;5017750;28;20086;-70
2022/03/13 03:15:39;;;;;;;48.22;18.30;;;8.00;99.90;;;;;;5014930;28;20037;-69
2022/03/13 03:18:09;;;;;;;49.05;18.10;;;8.10;99.90;;;;;;5013618;28;20440;-70
2022/03/13 03:20:35;;;;;;;48.50;17.55;;;8.00;99.90;;;;;;5015487;28;20046;-70
2022/03/13 03:23:02;;;;;;;49.30;19.07;;;8.00;99.90;;;;;;4984336;28;20068;-69
2022/03/13 03:25:28;;;;;;;46.80;18.50;;;7.90;99.90;;;;;;5018155;28;20285;-69
2022/03/13 03:27:56;;;;;;;49.70;19.05;;;7.80;99.90;;;;;;5018093;28;20328;-69
2022/03/13 03:30:24;;;;;;;47.58;17.67;;;7.70;99.90;;;;;;5017417;28;20046;-70
2022/03/13 03:32:51;;;;;;;46.05;18.52;;;7.60;99.90;;;;;;5015997;28;20083;-69
2022/03/13 03:35:22;;;;;;;47.63;19.75;;;7.50;99.90;;;;;;5016878;28;20390;-73
2022/03/13 03:37:50;;;;;;;46.78;18.85;;;7.40;99.90;;;;;;5013131;28;20129;-74
2022/03/13 03:40:16;;;;;;;46.03;18.95;;;7.40;99.90;;;;;;5013686;28;20054;-74
2022/03/13 03:42:42;;;;;;;52.03;19.60;;;7.40;99.90;;;;;;4995960;28;20366;-74
2022/03/13 03:45:09;;;;;;;44.58;18.92;;;7.30;99.90;;;;;;5013361;28;20088;-74
2022/03/13 03:47:34;;;;;;;51.03;19.23;;;7.20;99.90;;;;;;5013509;28;20053;-74
2022/03/13 03:50:01;;;;;;;51.92;20.23;;;7.20;99.90;;;;;;5013170;28;20312;-74
2022/03/13 03:52:26;;;;;;;45.83;19.25;;;7.10;99.90;;;;;;5012284;28;20061;-73
2022/03/13 03:54:52;;;;;;;46.95;18.70;;;7.10;99.90;;;;;;5012882;28;20046;-74
2022/03/13 03:57:19;;;;;;;51.78;20.27;;;7.00;99.90;;;;;;5012872;28;20100;-73
2022/03/13 03:59:45;;;;;;;44.80;19.30;;;6.90;99.90;;;;;;5011706;28;20081;-75
2022/03/13 04:02:12;;;;;;;48.05;19.50;;;6.90;99.90;;;;;;4995869;28;20133;-74
2022/03/13 04:04:39;;;;;;;49.28;20.25;;;6.80;99.90;;;;;;5013079;28;20089;-75
2022/03/13 04:07:05;;;;;;;57.40;19.73;;;6.90;99.90;;;;;;5013001;28;20038;-74
2022/03/13 04:09:31;;;;;;;50.13;19.37;;;6.90;99.90;;;;;;4995546;28;20049;-73
2022/03/13 04:11:57;;;;;;;52.97;19.98;;;6.90;99.90;;;;;;5013022;28;20108;-74
2022/03/13 04:14:23;;;;;;;51.92;20.75;;;6.90;99.90;;;;;;5012413;28;20064;-75
2022/03/13 04:16:50;;;;;;;52.90;21.98;;;6.90;99.90;;;;;;5012764;28;20140;-75
2022/03/13 04:19:17;;;;;;;53.13;20.63;;;6.90;99.90;;;;;;5012896;28;20363;-75
2022/03/13 04:21:43;;;;;;;41.03;15.38;;;7.00;99.90;;;;;;5011585;28;20190;-74
2022/03/13 04:24:11;;;;;;;52.13;20.13;;;7.00;99.90;;;;;;5012699;28;20057;-74
2022/03/13 04:26:39;;;;;;;58.75;22.75;;;7.00;99.90;;;;;;5011787;28;20552;-74
2022/03/13 04:29:09;;;;;;;54.63;21.58;;;6.90;99.90;;;;;;5011374;28;20045;-76
2022/03/13 04:31:37;;;;;;;57.97;22.27;;;6.90;99.90;;;;;;5011981;28;20049;-75
2022/03/13 04:34:04;;;;;;;57.45;20.15;;;6.70;99.90;;;;;;4995020;28;20045;-76
2022/03/13 04:36:33;;;;;;;59.05;21.25;;;6.70;99.90;;;;;;5010828;28;20054;-74
2022/03/13 04:39:03;;;;;;;55.45;20.60;;;6.70;99.90;;;;;;5011362;28;20092;-74
2022/03/13 04:41:29;;;;;;;57.72;22.38;;;6.60;99.90;;;;;;5012591;28;20296;-75
2022/03/13 04:43:55;;;;;;;57.50;22.67;;;6.50;99.90;;;;;;5012116;28;20077;-73
2022/03/13 04:46:20;;;;;;;56.33;21.38;;;6.50;99.90;;;;;;5011437;28;20482;-75
2022/03/13 04:48:47;;;;;;;57.47;21.63;;;6.50;99.90;;;;;;5013106;28;20064;-74
2022/03/13 04:51:13;;;;;;;57.80;21.42;;;6.40;99.90;;;;;;5011338;28;20057;-74
2022/03/13 04:53:38;;;;;;;57.45;21.50;;;6.30;99.90;;;;;;5011171;28;20107;-74
2022/03/13 04:56:04;;;;;;;53.47;21.23;;;6.20;99.90;;;;;;5011475;28;20204;-74
2022/03/13 04:58:31;;;;;;;55.25;22.13;;;6.20;99.90;;;;;;5011577;28;20137;-73
2022/03/13 05:00:57;;;;;;;53.50;22.23;;;6.10;99.90;;;;;;5010755;28;20054;-74
2022/03/13 05:03:23;;;;;;;51.88;21.23;;;6.10;99.90;;;;;;5012049;28;20045;-74
2022/03/13 05:05:50;;;;;;;57.00;22.15;;;6.10;99.90;;;;;;5011239;28;20136;-74
2022/03/13 05:08:18;;;;;;;54.45;22.38;;;6.00;99.90;;;;;;5011123;28;20053;-74
2022/03/13 05:10:45;;;;;;;60.42;21.77;;;6.00;99.90;;;;;;5011164;28;20134;-74
2022/03/13 05:13:13;;;;;;;63.22;23.23;;;5.90;99.90;;;;;;5012300;28;20042;-76
2022/03/13 05:15:40;;;;;;;60.08;22.60;;;5.90;99.90;;;;;;5012150;28;20050;-75
2022/03/13 05:18:06;;;;;;;58.28;22.38;;;5.80;99.90;;;;;;5011612;28;20128;-74
2022/03/13 05:20:34;;;;;;;55.20;22.17;;;5.80;99.90;;;;;;5012637;28;20050;-74
2022/03/13 05:23:00;;;;;;;55.97;22.48;;;5.80;99.90;;;;;;5010666;28;20536;-74
2022/03/13 05:25:30;;;;;;;59.60;23.27;;;5.80;99.90;;;;;;4995517;28;20073;-74
2022/03/13 05:27:56;;;;;;;55.05;22.15;;;5.70;99.90;;;;;;5010888;28;20076;-74
2022/03/13 05:30:22;;;;;;;59.70;23.13;;;5.70;99.90;;;;;;5012213;28;20137;-74
2022/03/13 05:32:48;;;;;;;56.80;21.30;;;5.70;99.90;;;;;;5011271;28;20054;-75
2022/03/13 05:35:15;;;;;;;58.05;22.08;;;5.70;99.90;;;;;;4994721;28;20185;-75
2022/03/13 05:37:41;;;;;;;57.95;21.02;;;5.70;99.90;;;;;;5012348;28;20049;-73
2022/03/13 05:40:13;;;;;;;59.47;22.35;;;5.70;99.90;;;;;;5011605;28;20537;-74
2022/03/13 05:42:43;;;;;;;58.83;21.98;;;5.70;99.90;;;;;;4995363;28;20589;-75
2022/03/13 05:45:11;;;;;;;57.92;21.83;;;5.70;99.90;;;;;;5011184;28;20057;-76
2022/03/13 05:47:45;;;;;;;;;;;5.60;99.90;;;;;;5011504;28;20198;-74
2022/03/13 05:50:12;;;;;;;61.60;21.48;;;5.60;99.90;;;;;;5011798;28;19921;-74
2022/03/13 05:52:38;;;;;;;57.92;21.95;;;5.60;99.90;;;;;;5010919;28;20133;-75
2022/03/13 05:55:05;;;;;;;60.55;22.40;;;5.60;99.90;;;;;;4994794;28;20142;-75
2022/03/13 05:57:31;;;;;;;56.30;22.25;;;5.60;99.90;;;;;;5015286;28;20054;-74
2022/03/13 05:59:57;;;;;;;57.83;20.33;;;5.70;99.90;;;;;;5013969;28;20397;-75
2022/03/13 06:02:24;;;;;;;58.20;22.88;;;5.70;99.90;;;;;;4997875;28;20121;-75
2022/03/13 06:04:51;;;;;;;58.42;22.73;;;5.60;99.90;;;;;;4997658;28;20569;-74
2022/03/13 06:07:17;;;;;;;72.50;23.67;;;5.60;99.90;;;;;;5014634;28;20132;-75
2022/03/13 06:09:43;;;;;;;49.17;19.75;;;5.60;99.90;;;;;;5014106;28;20528;-73
2022/03/13 06:12:09;;;;;;;54.83;21.58;;;5.60;99.90;;;;;;5015274;28;20060;-74
2022/03/13 06:14:34;;;;;;;57.10;21.67;;;5.70;99.90;;;;;;5014547;28;20056;-75
2022/03/13 06:17:00;;;;;;;60.83;23.13;;;5.80;99.90;;;;;;5015313;28;20401;-76
2022/03/13 06:19:26;;;;;;;62.10;22.10;;;5.80;99.90;;;;;;5014961;28;20096;-76
2022/03/13 06:21:52;;;;;;;54.72;19.88;;;5.70;99.90;;;;;;4997598;28;20046;-75
2022/03/13 06:24:18;;;;;;;51.53;19.52;;;5.80;99.90;;;;;;4997493;28;20143;-74
2022/03/13 06:26:44;;;;;;;56.47;21.95;;;5.80;99.90;;;;;;5014824;28;20100;-74
2022/03/13 06:29:13;;;;;;;56.63;19.90;;;6.00;99.90;;;;;;5013601;28;20053;-76
2022/03/13 06:31:39;;;;;;;56.08;21.23;;;6.00;99.90;;;;;;5013409;28;20050;-75
2022/03/13 06:34:05;;;;;;;52.00;18.55;;;6.00;99.90;;;;;;5014646;28;20363;-74
2022/03/13 06:36:31;;;;;;;50.08;18.25;;;6.10;99.90;;;;;;4996776;28;20064;-74
2022/03/13 06:38:57;;;;;;;54.20;21.40;;;6.20;99.90;;;;;;5014537;28;20056;-76
2022/03/13 06:41:23;;;;;;;61.60;22.10;;;6.20;99.90;;;;;;5013555;28;20133;-75
2022/03/13 06:43:48;;;;;;;52.63;19.50;;;6.20;99.90;;;;;;5014952;28;20497;-74
2022/03/13 06:46:14;;;;;;;55.63;18.80;;;6.10;99.90;;;;;;5014330;28;20108;-74
2022/03/13 06:48:41;;;;;;;53.65;20.08;;;6.30;99.90;;;;;;5014173;28;20132;-74
2022/03/13 06:51:07;;;;;;;41.20;15.57;;;6.50;99.90;;;;;;5012969;28;20120;-74
2022/03/13 06:53:35;;;;;;;51.28;16.90;;;6.40;99.90;;;;;;4996519;28;20101;-74
2022/03/13 06:56:01;;;;;;;48.22;19.52;;;6.60;99.90;;;;;;5014650;28;20050;-74
2022/03/13 06:58:28;;;;;;;55.13;20.10;;;6.70;99.90;;;;;;5012980;28;20058;-74
2022/03/13 07:00:53;;;;;;;55.07;20.20;;;6.70;99.90;;;;;;5014100;28;20049;-74
2022/03/13 07:03:19;;;;;;;51.38;19.52;;;6.80;99.90;;;;;;5014223;28;20346;-75
2022/03/13 07:05:46;;;;;;;52.33;20.25;;;6.80;99.90;;;;;;5013789;28;20045;-74
2022/03/13 07:08:13;;;;;;;50.95;19.27;;;6.90;99.90;;;;;;5012407;28;20050;-74
2022/03/13 07:10:39;;;;;;;48.33;16.97;;;7.00;99.90;;;;;;5013963;28;20140;-75
2022/03/13 07:13:05;;;;;;;46.15;18.92;;;7.00;99.90;;;;;;5014351;28;20061;-75
2022/03/13 07:15:31;;;;;;;49.05;19.00;;;7.20;99.90;;;;;;5012484;28;20133;-76
2022/03/13 07:17:58;;;;;;;53.63;20.30;;;7.20;99.90;;;;;;5012798;28;20120;-75
2022/03/13 07:20:24;;;;;;;50.33;18.60;;;7.30;99.90;;;;;;5012303;28;20050;-75
2022/03/13 07:22:50;;;;;;;47.88;17.55;;;7.40;99.90;;;;;;5012649;28;20049;-74
2022/03/13 07:25:17;;;;;;;49.33;19.30;;;7.50;99.90;;;;;;5012465;28;20046;-75
2022/03/13 07:27:44;;;;;;;58.25;26.10;;;7.50;99.90;;;;;;4995893;28;20049;-75
2022/03/13 07:30:12;;;;;;;52.17;21.23;;;7.60;99.90;;;;;;5012212;28;20046;-74
2022/03/13 07:32:40;;;;;;;48.90;20.15;;;7.70;99.90;;;;;;4996047;28;20049;-76
2022/03/13 07:35:07;;;;;;;52.53;22.40;;;7.80;99.90;;;;;;4979969;28;20140;-75
2022/03/13 07:37:33;;;;;;;;;;;7.80;99.90;;;;;;5013072;28;20050;-75
2022/03/13 07:39:59;;;;;;;52.93;23.60;;;7.90;99.90;;;;;;5012736;28;19926;-76
2022/03/13 07:42:25;;;;;;;53.78;21.77;;;8.00;99.90;;;;;;5013616;28;20413;-74
2022/03/13 07:44:51;;;;;;;59.70;28.65;;;8.00;99.90;;;;;;5012160;28;20050;-74
2022/03/13 07:47:17;;;;;;;67.45;30.83;;;8.10;99.90;;;;;;5012382;28;20053;-76
2022/03/13 07:49:43;;;;;;;58.78;24.75;;;8.10;99.90;;;;;;5011793;28;20095;-75
2022/03/13 07:52:09;;;;;;;43.05;16.63;;;8.20;99.90;;;;;;4996417;28;20422;-78
2022/03/13 07:54:35;;;;;;;50.40;21.42;;;8.20;99.90;;;;;;5012684;28;20050;-75
2022/03/13 07:57:02;;;;;;;47.70;16.27;;;8.30;99.90;;;;;;5012197;28;20050;-74
2022/03/13 07:59:28;;;;;;;42.70;17.50;;;8.40;99.90;;;;;;4996449;28;20104;-74
2022/03/13 08:01:53;;;;;;;41.33;15.43;;;8.50;99.90;;;;;;5013300;28;20450;-75
2022/03/13 08:04:19;;;;;;;38.42;14.38;;;8.70;99.90;;;;;;5013317;28;20076;-74
2022/03/13 08:06:45;;;;;;;40.53;15.90;;;8.80;99.00;;;;;;5013672;28;20061;-74
2022/03/13 08:09:11;;;;;;;43.85;16.10;;;8.90;98.00;;;;;;5012321;28;20378;-75
2022/03/13 08:11:38;;;;;;;31.13;11.68;;;8.80;98.20;;;;;;4996279;28;20308;-74
2022/03/13 08:14:07;;;;;;;37.47;13.77;;;8.80;96.90;;;;;;5012977;28;20054;-76
2022/03/13 08:16:34;;;;;;;25.10;9.57;;;8.80;96.80;;;;;;4996340;28;20049;-77
2022/03/13 08:19:00;;;;;;;41.63;16.65;;;8.80;95.00;;;;;;5013082;28;20104;-75
2022/03/13 08:21:26;;;;;;;38.83;15.88;;;8.80;95.80;;;;;;5012442;28;20088;-74
2022/03/13 08:23:52;;;;;;;42.03;16.63;;;8.80;95.90;;;;;;4996170;28;20088;-74
2022/03/13 08:26:19;;;;;;;43.58;15.60;;;8.80;96.30;;;;;;5012698;28;20134;-76
2022/03/13 08:28:45;;;;;;;44.43;16.93;;;8.90;95.10;;;;;;4995464;28;20038;-73
2022/03/13 08:31:12;;;;;;;37.67;15.85;;;8.90;95.10;;;;;;5011741;28;20099;-75
2022/03/13 08:33:37;;;;;;;;;;;8.90;95.10;;;;;;5012090;28;20046;-74
2022/03/13 08:36:04;;;;;;;41.38;15.63;;;8.90;95.10;;;;;;5011692;28;19928;-75
2022/03/13 08:38:30;;;;;;;40.70;16.27;;;8.90;95.60;;;;;;5011904;28;20135;-77
2022/03/13 08:40:56;;;;;;;40.75;16.23;;;8.90;94.60;;;;;;5012000;28;20045;-73
2022/03/13 08:43:22;;;;;;;44.00;16.92;;;9.00;94.60;;;;;;5011809;28;20085;-75
2022/03/13 08:45:48;;;;;;;31.58;11.43;;;9.00;94.40;;;;;;4995429;28;20124;-75
2022/03/13 08:48:14;;;;;;;37.83;13.13;;;9.10;93.00;;;;;;4995209;28;20142;-75
2022/03/13 08:50:40;;;;;;;33.88;12.45;;;9.10;92.60;;;;;;4995778;28;20206;-76
2022/03/13 08:53:07;;;;;;;38.47;13.50;;;9.20;91.40;;;;;;5011669;28;20116;-76
2022/03/13 08:55:33;;;;;;;39.53;16.43;;;9.30;91.60;;;;;;5012388;28;20045;-75
2022/03/13 08:57:58;;;;;;;36.55;14.13;;;9.30;92.40;;;;;;5011846;28;20289;-74
2022/03/13 09:00:27;;;;;;;40.13;16.35;;;9.40;91.30;;;;;;5012400;28;20050;-74
2022/03/13 09:02:53;;;;;;;35.83;14.98;;;9.40;91.80;;;;;;4997367;28;20058;-75
2022/03/13 09:05:20;;;;;;;37.80;15.07;;;9.50;92.00;;;;;;5013902;28;20057;-73
2022/03/13 09:07:46;;;;;;;36.50;14.43;;;9.60;91.60;;;;;;4981128;28;20486;-75
2022/03/13 09:10:13;;;;;;;38.83;15.83;;;9.70;91.30;;;;;;5014715;28;20049;-75
2022/03/13 09:12:39;;;;;;;38.40;14.00;;;9.80;91.10;;;;;;5013578;28;20054;-74
2022/03/13 09:15:06;;;;;;;25.73;8.63;;;9.90;88.70;;;;;;5012732;28;20133;-75
2022/03/13 09:17:32;;;;;;;38.88;15.40;;;10.10;84.70;;;;;;5014519;28;20081;-76
2022/03/13 09:19:58;;;;;;;40.03;16.23;;;10.10;86.60;;;;;;5012094;28;20042;-74
2022/03/13 09:22:30;;;;;;;35.97;15.75;;;10.00;88.30;;;;;;4996963;28;20057;-74
2022/03/13 09:24:57;;;;;;;40.80;16.00;;;10.10;86.90;;;;;;5014374;28;20049;-75
2022/03/13 09:27:28;;;;;;;34.85;14.93;;;10.10;87.40;;;;;;5012888;28;20050;-76
2022/03/13 09:29:54;;;;;;;38.40;14.88;;;10.30;88.50;;;;;;5013474;28;20046;-77
2022/03/13 09:32:22;;;;;;;40.40;16.43;;;10.40;85.50;;;;;;5014868;28;20504;-76
2022/03/13 09:34:48;;;;;;;38.53;15.65;;;10.50;85.30;;;;;;4997952;28;20486;-76
2022/03/13 09:37:14;;;;;;;38.15;15.13;;;10.60;84.90;;;;;;4998514;28;20052;-75
2022/03/13 09:39:40;;;;;;;38.30;16.25;;;10.70;83.60;;;;;;5015928;28;20105;-76
2022/03/13 09:42:06;;;;;;;38.30;13.68;;;10.80;85.00;;;;;;5015957;28;20042;-76
2022/03/13 09:44:31;;;;;;;39.28;15.95;;;11.00;79.80;;;;;;5015869;28;20050;-74
2022/03/13 09:46:57;;;;;;;36.65;13.70;;;11.00;80.80;;;;;;5014494;28;20482;-73
2022/03/13 09:49:24;;;;;;;36.40;14.80;;;11.10;80.40;;;;;;4997753;28;20049;-73
2022/03/13 09:51:51;;;;;;;34.40;14.80;;;11.20;80.00;;;;;;5015904;28;20133;-74
2022/03/13 09:54:17;;;;;;;37.03;14.27;;;11.30;79.00;;;;;;5015627;28;20054;-75
2022/03/13 09:56:43;;;;;;;35.60;13.93;;;11.40;79.20;;;;;;5015031;28;20053;-74
2022/03/13 09:59:09;;;;;;;36.35;15.38;;;11.50;77.20;;;;;;5013895;28;20103;-79
2022/03/13 10:01:35;;;;;;;39.05;14.13;;;11.60;77.80;;;;;;5015127;28;20069;-73
2022/03/13 10:04:02;;;;;;;39.35;15.48;;;11.70;76.90;;;;;;4998197;28;20049;-75
2022/03/13 10:06:28;;;;;;;39.35;14.88;;;11.70;78.30;;;;;;4981846;28;20045;-76
2022/03/13 10:08:54;;;;;;;36.80;15.73;;;11.70;78.90;;;;;;5015363;28;20052;-74
2022/03/13 10:11:35;;;;;;;38.60;15.60;;;11.80;76.70;;;;;;4997752;28;20136;-74
2022/03/13 10:14:09;;;;;;;38.53;15.30;;;11.90;76.90;;;;;;5013984;28;20168;-75
2022/03/13 10:16:37;;;;;;;41.63;16.15;;;11.90;75.00;;;;;;5013948;28;20136;-75
2022/03/13 10:19:18;;;;;;;39.70;15.35;;;11.90;77.00;;;;;;5014227;28;20042;-74
2022/03/13 10:22:07;;;;;;;40.35;13.65;;;12.00;77.50;;;;;;4997771;28;20046;-76
2022/03/13 10:24:46;;;;;;;34.13;13.18;;;12.30;76.20;;;;;;5014821;28;20125;-73
2022/03/13 10:27:18;;;;;;;35.05;14.52;;;12.40;73.70;;;;;;5013651;28;20053;-75
2022/03/13 10:29:48;;;;;;;48.38;16.10;;;12.40;74.50;;;;;;5014917;28;20117;-75
2022/03/13 10:32:15;;;;;;;40.92;16.67;;;12.50;73.70;;;;;;5014625;28;20046;-74
2022/03/13 10:34:41;;;;;;;;;;;12.40;73.80;;;;;;4997135;28;20062;-73
2022/03/13 10:37:08;;;;;;;36.75;15.98;;;12.60;71.60;;;;;;5013470;28;20052;-75
2022/03/13 10:39:35;;;;;;;41.53;16.80;;;12.60;72.30;;;;;;4981210;28;20104;-74
2022/03/13 10:42:03;;;;;;;;;;;12.60;73.60;;;;;;5012899;28;20038;-75
2022/03/13 10:44:34;;;;;;;36.38;14.75;;;12.60;71.40;;;;;;5014609;28;19945;-74
2022/03/13 10:47:08;;;;;;;39.30;16.20;;;12.70;72.90;;;;;;5013601;28;20486;-74
2022/03/13 10:49:44;;;;;;;43.22;15.75;;;12.90;71.90;;;;;;4997090;28;20046;-74
2022/03/13 10:52:29;;;;;;;45.42;16.65;;;13.00;70.80;;;;;;5014462;28;20188;-74
2022/03/13 10:55:22;;;;;;;39.65;17.40;;;13.00;70.60;;;;;;5013986;28;20097;-74
2022/03/13 10:57:56;;;;;;;41.28;16.67;;;13.00;71.90;;;;;;5013480;28;20057;-74
2022/03/13 11:00:24;;;;;;;35.15;14.32;;;13.10;73.00;;;;;;4996535;28;20085;-74
2022/03/13 11:02:50;;;;;;;36.17;13.80;;;13.30;68.20;;;;;;5013325;28;20061;-75
2022/03/13 11:05:16;;;;;;;38.10;16.65;;;13.30;69.20;;;;;;5013471;28;20385;-75
2022/03/13 11:07:42;;;;;;;40.92;17.00;;;13.30;71.30;;;;;;5013254;28;20382;-75
2022/03/13 11:10:10;;;;;;;41.22;16.95;;;13.30;70.40;;;;;;4996580;28;20037;-74
2022/03/13 11:12:40;;;;;;;37.90;16.05;;;13.40;70.00;;;;;;5014268;28;20046;-75
2022/03/13 11:15:08;;;;;;;38.20;16.50;;;13.50;69.50;;;;;;5014708;28;20042;-74
2022/03/13 11:17:36;;;;;;;36.08;15.13;;;13.50;70.40;;;;;;5013161;28;20085;-74
2022/03/13 11:20:04;;;;;;;40.35;16.00;;;13.50;68.50;;;;;;5012667;28;20137;-75
2022/03/13 11:22:30;;;;;;;40.05;17.73;;;13.50;69.90;;;;;;5012952;28;20050;-76
2022/03/13 11:25:02;;;;;;;39.15;16.40;;;13.60;70.50;;;;;;5014235;28;20053;-76
2022/03/13 11:27:30;;;;;;;41.75;17.67;;;13.60;68.50;;;;;;5014065;28;20046;-74
2022/03/13 11:29:56;;;;;;;39.78;16.23;;;13.70;67.40;;;;;;5013789;28;20042;-75
2022/03/13 11:32:34;;;;;;;38.75;16.13;;;13.60;69.10;;;;;;5013730;28;20048;-75
2022/03/13 11:35:18;;;;;;;39.33;15.88;;;13.70;69.50;;;;;;5011989;28;20062;-76
2022/03/13 11:37:46;;;;;;;38.88;17.75;;;13.80;68.30;;;;;;5014417;28;20343;-74
2022/03/13 11:40:15;;;;;;;38.13;16.40;;;13.90;69.80;;;;;;4996059;28;20048;-74
2022/03/13 11:42:54;;;;;;;39.92;17.45;;;14.00;67.90;;;;;;5012601;28;20160;-75
2022/03/13 11:45:30;;;;;;;42.35;15.98;;;14.00;68.70;;;;;;5012546;28;20049;-74
2022/03/13 11:48:05;;;;;;;37.72;16.23;;;14.00;69.10;;;;;;5014144;28;20054;-75
2022/03/13 11:50:52;;;;;;;36.05;16.27;;;14.10;68.30;;;;;;5013614;28;20081;-74
2022/03/13 11:53:23;;;;;;;36.90;17.63;;;14.20;69.50;;;;;;5013428;28;20459;-75
2022/03/13 11:56:05;;;;;;;38.92;18.02;;;14.30;68.10;;;;;;4996212;28;20058;-75
2022/03/13 11:58:45;;;;;;;38.88;16.85;;;14.40;69.40;;;;;;5012263;28;20049;-75
2022/03/13 12:01:31;;;;;;;38.55;16.25;;;14.40;68.60;;;;;;5013280;28;20048;-74
2022/03/13 12:06:41;;;;;;;38.20;15.65;;;14.50;67.50;;;;;;5013415;28;20203;-76
2022/03/13 12:09:25;;;;;;;43.05;17.40;;;14.50;67.90;;;;;;5012117;28;20050;-75
2022/03/13 12:12:04;;;;;;;36.25;15.82;;;14.60;66.20;;;;;;5012805;28;20100;-75
2022/03/13 12:14:51;;;;;;;42.38;18.05;;;14.60;66.40;;;;;;4996086;28;20085;-74
2022/03/13 12:17:18;;;;;;;40.33;16.90;;;14.50;67.50;;;;;;5012889;28;20050;-76
2022/03/13 12:19:46;;;;;;;38.63;16.42;;;14.50;66.10;;;;;;4995485;28;20050;-75
2022/03/13 12:22:14;;;;;;;37.65;15.55;;;14.50;66.00;;;;;;4996117;28;20133;-75
2022/03/13 12:24:51;;;;;;;41.53;16.65;;;14.60;65.10;;;;;;4996260;28;20054;-75
2022/03/13 12:27:18;;;;;;;39.40;17.17;;;14.60;65.50;;;;;;5011896;28;20050;-75
2022/03/13 12:29:55;;;;;;;36.15;13.95;;;14.50;66.30;;;;;;4995751;28;20386;-75
2022/03/13 12:32:22;;;;;;;38.05;16.10;;;14.60;64.80;;;;;;5013216;28;20099;-75
2022/03/13 12:34:48;;;;;;;41.38;17.13;;;14.60;65.50;;;;;;5012798;28;20045;-74
2022/03/13 12:37:14;;;;;;;35.92;16.00;;;14.60;66.10;;;;;;4995951;28;20085;-76
2022/03/13 12:39:55;;;;;;;49.78;20.80;;;14.70;66.10;;;;;;4978938;28;20410;-75
2022/03/13 12:42:23;;;;;;;36.80;16.63;;;14.80;65.30;;;;;;5012675;28;20412;-74